Luger, Wisconsin
Current Conditions -  °F | °C
As of 1:15 PM on Saturday 25 Oct 2014 (Local Time) from KPBH Reporting Station
Clear Clear  
Wind Chill: 56°   Ceiling: Unl
Heat Index: 56°   Visibility: 10mi
Dew Point: 30°   Wind: 13mph
Humidity: 37%   Direction: 300°WNW
Pressure: 29.89"   Gusts: 18mph
Location:  45.7439°N, 90.2959°W
Report Text: KPBH 251815Z AUTO 30011G16KT 260V320 10SM CLR 13/M01 A2989 RMK AO2 T01331011
Loading
Personal Weather Stations






























Interactive Weather Map
Tropical Storm Tracking
New forecast layout! Learn more

10-Day Weather Forecast

Advertisements
Track Severe Weather on mobile